Shrivenham, United Kingdom
Current Conditions -  °F | °C
As of 8:29 PM on Thursday 23 Oct 2014 (Local Time) from EGVA Reporting Station
Overcast Overcast  
Wind Chill: 57°   Ceiling: 2900
Heat Index: 57°   Visibility: 6mi
Dew Point: 57°   Wind: 8mph
Humidity: 100%   Direction: 220°SW
Pressure: 30"   Gusts: NA
Location:  51.6°N, 1.65°W
Report Text: EGVA 231929Z AUTO 22007KT 9999 SCT013 BKN029 OVC036 14/14 A3000 RMK AO2 RAB1912E1927DZB1910E1912B1927 CIG 019V034
Loading
Personal Weather Stations






























Interactive Weather Map
Tropical Storm Tracking
New forecast layout! Learn more

10-Day Weather Forecast

Advertisements
Track Severe Weather on mobile